YTNK

Details ICAO YTNK (TCA)
Name Tennant Creek
Region Australia
Timezone Australia/Darwin (UTC+9.5)
Plans Departing 7
Arriving 11
Stats Elevation 1,236 ft / 377 m (AMSL)
Location -19.634808° 134.181380°
Runways 3
Magnetic Variation 4.183° E
Sunrise 2017-12-18 20:22:06 UTC / 2017-12-19 05:52:06 Local
Sunset 2017-12-19 09:40:59 UTC / 2017-12-19 19:10:59 Local
Advertisement - Login to hide

Runways

ID Width Length Bearing (true) Bearing (mag) Surface Threshold Offset Overrun Length
07 98 ft / 30 m 6,416 ft / 1,956 m 74.30° 70.12° Asphalt 0 ft / 0 m 0 ft / 0 m
11 59 ft / 18 m 3,456 ft / 1,053 m 119.40° 115.22° Asphalt 0 ft / 0 m 0 ft / 0 m
2 39 ft / 12 m 2,428 ft / 740 m 23.33° 19.15° Asphalt 0 ft / 0 m 0 ft / 0 m
20 39 ft / 12 m 2,428 ft / 740 m 203.33° 199.15° Asphalt 0 ft / 0 m 0 ft / 0 m
25 98 ft / 30 m 6,416 ft / 1,956 m 254.30° 250.12° Asphalt 0 ft / 0 m 0 ft / 0 m
29 59 ft / 18 m 3,456 ft / 1,053 m 299.40° 295.22° Asphalt 0 ft / 0 m 0 ft / 0 m

Map

Weather


0- 5 10 15 20 25 30 35+ Temperature / ° C

Clouds and Precipitation
Forecast for 2017-12-19 00:00 UTC. Updated an hour ago

Ground ~20,000 ft ~40,000 ft Winds

METAR

YTNK 182200Z AUTO 32008KT 9999 // NCD 31/20 Q1009

TAF

TAF TAF YTNK 181859Z 1820/1908 33014KT CAVOK PROB30 TEMPO 1904/1908 VRB25G40KT 2000 TSRA SCT100CB

Frequencies

Unicom 126.70 MHz CTAF
Warning: Do not use this data for real-world aviation or navigation. No guarantee of current accuracy is given.